Time;durP1;ratioP1;P1;durP2;ratioP2;P2;SDS_P1;SDS_P2;PMS_P1;PMS_P2;Temp;Humidity;BMP_temperature;BMP_pressure;BME280_temperature;BME280_humidity;BME280_pressure;Samples;Min_cycle;Max_cycle;Signal;HPM_P1;HPM_P2
2022/01/25 00:08:41;;;;;;;12.38;11.18;;;;;;;;;;5121152;27;24458;-59
2022/01/25 00:24:23;;;;;;;12.00;10.80;;;;;;;;;;5127216;28;24409;-57
2022/01/25 00:27:05;;;;;;;11.63;10.52;;;;;;;;;;5124308;28;24468;-58
2022/01/25 00:29:58;;;;;;;11.65;10.55;;;;;;;;;;5122960;28;24821;-58
2022/01/25 00:32:18;;;;;;;11.70;10.60;;;;;;;;;;5120024;28;24941;-60
2022/01/25 00:34:44;;;;;;;10.90;9.90;;;;;;;;;;5123379;28;24420;-60
2022/01/25 00:37:09;;;;;;;11.73;10.63;;;;;;;;;;5121052;28;24451;-57
2022/01/25 00:39:37;;;;;;;12.00;10.80;;;;;;;;;;5116664;28;24494;-58
2022/01/25 00:42:03;;;;;;;10.88;9.77;;;;;;;;;;5120922;28;24949;-59
2022/01/25 00:44:34;;;;;;;11.20;10.20;;;;;;;;;;5125462;28;25046;-59
2022/01/25 00:47:01;;;;;;;11.23;10.10;;;;;;;;;;5124150;28;24476;-59
2022/01/25 00:49:27;;;;;;;11.38;10.27;;;;;;;;;;5112086;28;24462;-59
2022/01/25 00:54:28;;;;;;;11.27;10.20;;;;;;;;;;5124722;28;24573;-59
2022/01/25 00:56:53;;;;;;;12.90;11.70;;;;;;;;;;5120390;28;24410;-59
2022/01/25 00:59:20;;;;;;;12.10;10.97;;;;;;;;;;5125634;28;24564;-59
2022/01/25 01:01:46;;;;;;;11.50;10.40;;;;;;;;;;5118558;28;24493;-58
2022/01/25 01:04:11;;;;;;;12.40;11.20;;;;;;;;;;5117932;28;24431;-59
2022/01/25 01:06:38;;;;;;;12.10;11.00;;;;;;;;;;5123215;28;24424;-59
2022/01/25 01:09:05;;;;;;;12.77;11.57;;;;;;;;;;5126089;28;24429;-58
2022/01/25 01:11:37;;;;;;;11.93;10.80;;;;;;;;;;5111608;27;24457;-58
2022/01/25 01:14:14;;;;;;;12.27;11.07;;;;;;;;;;5124487;27;24990;-59
2022/01/25 01:30:20;;;;;;;12.85;11.65;;;;;;;;;;5119774;27;24444;-59
2022/01/25 01:38:21;;;;;;;13.20;11.90;;;;;;;;;;5124975;27;24452;-60
2022/01/25 01:45:54;;;;;;;12.13;10.93;;;;;;;;;;5127955;27;24860;-60
2022/01/25 01:48:28;;;;;;;13.38;11.98;;;;;;;;;;5125658;27;24457;-60
2022/01/25 01:50:55;;;;;;;12.55;11.27;;;;;;;;;;5123346;27;24421;-60
2022/01/25 01:53:20;;;;;;;12.33;11.13;;;;;;;;;;5124271;27;24619;-59
2022/01/25 01:55:45;;;;;;;12.10;11.00;;;;;;;;;;5126392;27;24508;-59
2022/01/25 01:58:10;;;;;;;12.50;11.30;;;;;;;;;;5125151;27;24417;-59
2022/01/25 02:00:40;;;;;;;12.10;10.80;;;;;;;;;;5127889;27;24525;-59
2022/01/25 02:03:05;;;;;;;12.80;11.50;;;;;;;;;;5126757;27;24405;-59
2022/01/25 02:05:30;;;;;;;12.67;11.47;;;;;;;;;;5123283;27;24436;-59
2022/01/25 02:07:56;;;;;;;12.57;11.00;;;;;;;;;;5121538;27;24421;-59
2022/01/25 02:10:21;;;;;;;13.03;11.73;;;;;;;;;;5124473;27;24782;-59
2022/01/25 02:12:49;;;;;;;12.30;11.00;;;;;;;;;;5123627;27;24424;-59
2022/01/25 02:15:15;;;;;;;12.90;11.38;;;;;;;;;;5121025;27;25101;-59
2022/01/25 02:17:58;;;;;;;11.93;10.70;;;;;;;;;;5127944;27;24494;-59
2022/01/25 02:23:18;;;;;;;12.10;10.80;;;;;;;;;;5123813;27;24521;-59
2022/01/25 02:25:43;;;;;;;12.27;10.98;;;;;;;;;;5116331;27;24473;-59
2022/01/25 02:28:08;;;;;;;11.90;10.23;;;;;;;;;;5128396;27;24433;-59
2022/01/25 02:30:33;;;;;;;11.23;10.02;;;;;;;;;;5127312;27;24763;-59
2022/01/25 02:32:58;;;;;;;11.07;9.97;;;;;;;;;;5128152;27;25034;-59
2022/01/25 02:35:23;;;;;;;11.65;10.43;;;;;;;;;;5126544;27;24435;-59
2022/01/25 02:37:48;;;;;;;11.40;10.20;;;;;;;;;;5125804;27;24453;-59
2022/01/25 02:40:14;;;;;;;11.25;9.60;;;;;;;;;;5121480;27;24982;-60
2022/01/25 02:42:39;;;;;;;11.40;10.13;;;;;;;;;;5124256;27;24459;-59
2022/01/25 02:45:04;;;;;;;12.00;10.80;;;;;;;;;;5117625;27;24525;-59
2022/01/25 02:50:13;;;;;;;10.75;9.38;;;;;;;;;;5124623;27;24505;-59
2022/01/25 02:52:38;;;;;;;11.07;9.87;;;;;;;;;;5122796;27;24445;-59
2022/01/25 02:55:04;;;;;;;11.03;9.77;;;;;;;;;;5127211;27;24412;-59
2022/01/25 02:57:29;;;;;;;11.60;10.30;;;;;;;;;;5127818;27;24779;-59
2022/01/25 02:59:54;;;;;;;11.77;10.30;;;;;;;;;;5127388;27;24417;-60
2022/01/25 03:02:19;;;;;;;11.82;10.30;;;;;;;;;;5127247;27;24409;-59
2022/01/25 03:04:44;;;;;;;12.38;10.63;;;;;;;;;;5126791;27;24472;-58
2022/01/25 03:07:10;;;;;;;12.93;10.53;;;;;;;;;;5126291;27;24424;-59
2022/01/25 03:09:37;;;;;;;11.32;10.13;;;;;;;;;;5127214;27;25189;-61
2022/01/25 03:12:05;;;;;;;13.55;10.68;;;;;;;;;;5127092;27;24979;-58
2022/01/25 03:14:33;;;;;;;12.07;10.30;;;;;;;;;;5127327;27;24510;-58
2022/01/25 03:19:43;;;;;;;13.20;11.07;;;;;;;;;;5126218;27;25492;-59
2022/01/25 03:22:17;;;;;;;12.93;10.93;;;;;;;;;;5124637;27;24805;-59
2022/01/25 03:24:42;;;;;;;12.43;10.67;;;;;;;;;;5125350;27;25078;-59
2022/01/25 03:27:08;;;;;;;10.87;9.67;;;;;;;;;;5122887;27;24642;-58
2022/01/25 03:29:33;;;;;;;12.17;10.40;;;;;;;;;;5121547;27;24501;-60
2022/01/25 03:31:58;;;;;;;11.17;9.67;;;;;;;;;;5123288;27;25028;-59
2022/01/25 03:34:23;;;;;;;12.43;10.40;;;;;;;;;;5126552;27;24955;-59
2022/01/25 03:36:48;;;;;;;10.70;9.20;;;;;;;;;;5126924;27;24974;-59
2022/01/25 03:39:13;;;;;;;10.47;8.90;;;;;;;;;;5119271;27;25004;-59
2022/01/25 03:41:39;;;;;;;10.70;9.00;;;;;;;;;;5126910;27;24425;-58
2022/01/25 03:44:04;;;;;;;9.90;8.90;;;;;;;;;;5125645;27;24477;-59
2022/01/25 03:51:40;;;;;;;10.30;8.60;;;;;;;;;;5123489;27;24458;-59
2022/01/25 03:54:05;;;;;;;9.70;8.60;;;;;;;;;;5126461;27;24421;-59
2022/01/25 03:56:30;;;;;;;11.10;9.00;;;;;;;;;;5120999;27;25006;-59
2022/01/25 03:58:55;;;;;;;10.17;8.40;;;;;;;;;;5124946;27;24447;-59
2022/01/25 04:01:21;;;;;;;9.60;8.60;;;;;;;;;;5126472;27;24405;-59
2022/01/25 04:03:58;;;;;;;9.10;8.17;;;;;;;;;;5126145;27;24417;-59
2022/01/25 04:06:24;;;;;;;9.45;8.45;;;;;;;;;;5120104;27;24417;-59
2022/01/25 04:08:49;;;;;;;9.27;8.38;;;;;;;;;;5121731;27;24492;-59
2022/01/25 04:11:14;;;;;;;8.70;7.80;;;;;;;;;;5125866;27;25233;-60
2022/01/25 04:13:39;;;;;;;9.38;8.43;;;;;;;;;;5123004;27;24439;-59
2022/01/25 04:16:12;;;;;;;8.40;7.60;;;;;;;;;;5121854;27;24434;-59
2022/01/25 04:18:54;;;;;;;9.05;8.15;;;;;;;;;;5116738;27;24516;-60
2022/01/25 04:21:42;;;;;;;8.60;7.50;;;;;;;;;;5123206;27;24412;-59
2022/01/25 04:26:53;;;;;;;8.70;7.90;;;;;;;;;;5116864;28;24424;-59
2022/01/25 04:29:19;;;;;;;8.70;7.80;;;;;;;;;;5123250;28;24422;-59
2022/01/25 04:31:44;;;;;;;8.30;7.50;;;;;;;;;;5125061;28;24423;-59
2022/01/25 04:34:14;;;;;;;8.00;7.10;;;;;;;;;;5124225;28;24962;-59
2022/01/25 04:50:05;;;;;;;8.32;7.53;;;;;;;;;;5123441;27;25147;-59
2022/01/25 04:52:37;;;;;;;7.82;7.10;;;;;;;;;;5118040;27;24425;-59
2022/01/25 04:55:12;;;;;;;8.52;7.70;;;;;;;;;;5129417;27;24421;-59
2022/01/25 05:00:10;;;;;;;7.70;6.90;;;;;;;;;;5127902;27;24478;-59
2022/01/25 05:02:51;;;;;;;7.70;7.00;;;;;;;;;;5117360;27;24496;-60
2022/01/25 05:05:24;;;;;;;8.80;7.90;;;;;;;;;;5130779;27;24791;-60
2022/01/25 05:08:14;;;;;;;8.77;7.30;;;;;;;;;;5126284;27;24481;-60
2022/01/25 05:10:48;;;;;;;8.70;7.80;;;;;;;;;;5130230;27;24961;-60
2022/01/25 05:14:11;;;;;;;8.77;7.65;;;;;;;;;;5121257;27;25215;-59
2022/01/25 05:16:14;;;;;;;8.90;7.63;;;;;;;;;;5117246;27;25256;-59
2022/01/25 05:18:43;;;;;;;9.00;8.00;;;;;;;;;;5126128;27;24448;-60
2022/01/25 05:23:53;;;;;;;9.57;8.57;;;;;;;;;;5122396;27;24997;-59
2022/01/25 05:26:18;;;;;;;10.10;9.10;;;;;;;;;;5125246;27;24413;-59
2022/01/25 05:28:43;;;;;;;10.27;9.10;;;;;;;;;;5125891;27;24513;-60
2022/01/25 05:31:08;;;;;;;9.20;8.20;;;;;;;;;;5117336;27;24502;-60
2022/01/25 05:33:33;;;;;;;9.90;8.40;;;;;;;;;;5125834;27;24469;-61
2022/01/25 05:35:59;;;;;;;10.60;9.05;;;;;;;;;;5119812;27;24541;-59
2022/01/25 05:38:24;;;;;;;9.77;8.77;;;;;;;;;;5113867;27;24454;-60
2022/01/25 05:40:58;;;;;;;11.47;10.27;;;;;;;;;;5120778;27;24474;-61
2022/01/25 05:46:14;;;;;;;10.33;9.17;;;;;;;;;;5124408;27;24432;-60
2022/01/25 05:48:39;;;;;;;12.70;10.48;;;;;;;;;;5112368;27;24412;-60
2022/01/25 05:51:05;;;;;;;12.93;10.70;;;;;;;;;;5121715;27;24552;-60
2022/01/25 05:53:31;;;;;;;12.23;10.30;;;;;;;;;;5126721;27;25002;-60
2022/01/25 05:55:56;;;;;;;11.00;9.70;;;;;;;;;;5117847;27;24512;-60
2022/01/25 05:58:22;;;;;;;12.10;10.43;;;;;;;;;;5119643;27;24851;-59
2022/01/25 06:00:47;;;;;;;12.17;10.87;;;;;;;;;;5124546;27;24420;-60
2022/01/25 06:03:12;;;;;;;11.95;10.68;;;;;;;;;;5119180;27;24421;-60
2022/01/25 06:05:38;;;;;;;11.63;10.30;;;;;;;;;;5124175;27;24441;-60
2022/01/25 06:08:03;;;;;;;13.35;11.95;;;;;;;;;;5123521;27;24437;-60
2022/01/25 06:10:29;;;;;;;11.60;10.40;;;;;;;;;;5116776;27;24544;-60
2022/01/25 06:12:54;;;;;;;13.57;12.07;;;;;;;;;;5122757;27;25077;-60
2022/01/25 06:15:20;;;;;;;12.23;10.43;;;;;;;;;;5122518;27;24428;-59
2022/01/25 06:17:45;;;;;;;12.00;10.35;;;;;;;;;;5123051;27;24500;-59
2022/01/25 06:20:10;;;;;;;12.33;11.03;;;;;;;;;;5123556;27;24425;-60
2022/01/25 06:22:36;;;;;;;11.10;10.00;;;;;;;;;;5118055;27;24421;-60
2022/01/25 06:25:02;;;;;;;15.10;10.95;;;;;;;;;;5122505;27;24497;-60
2022/01/25 06:27:27;;;;;;;13.15;11.27;;;;;;;;;;5129297;27;24631;-60
2022/01/25 06:29:52;;;;;;;11.98;10.52;;;;;;;;;;5116840;27;24424;-60
2022/01/25 06:32:19;;;;;;;13.13;10.47;;;;;;;;;;5129234;27;24911;-60
2022/01/25 06:34:44;;;;;;;14.38;11.85;;;;;;;;;;5123332;27;24409;-60
2022/01/25 06:37:11;;;;;;;10.98;9.77;;;;;;;;;;5128211;27;24432;-60
2022/01/25 06:39:36;;;;;;;11.80;10.20;;;;;;;;;;5119714;27;24478;-60
2022/01/25 06:42:01;;;;;;;11.97;10.37;;;;;;;;;;5124662;27;24486;-61
2022/01/25 06:44:27;;;;;;;13.60;10.67;;;;;;;;;;5125751;27;24445;-60
2022/01/25 06:46:52;;;;;;;12.73;11.10;;;;;;;;;;5128009;27;24529;-62
2022/01/25 06:49:17;;;;;;;10.45;9.35;;;;;;;;;;5122297;27;24534;-60
2022/01/25 06:51:42;;;;;;;12.00;9.63;;;;;;;;;;5125699;27;24420;-61
2022/01/25 06:54:07;;;;;;;12.37;10.30;;;;;;;;;;5125479;27;24425;-61
2022/01/25 06:56:33;;;;;;;12.30;10.57;;;;;;;;;;5126101;27;24416;-60
2022/01/25 06:58:58;;;;;;;13.00;11.20;;;;;;;;;;5114694;27;24461;-59
2022/01/25 07:01:23;;;;;;;12.40;10.93;;;;;;;;;;5118461;27;24892;-60
2022/01/25 07:03:48;;;;;;;14.10;11.33;;;;;;;;;;5117812;27;24440;-59
2022/01/25 07:06:13;;;;;;;11.77;10.00;;;;;;;;;;5124420;27;24509;-59
2022/01/25 07:08:39;;;;;;;12.93;10.87;;;;;;;;;;5120975;27;24413;-60
2022/01/25 07:11:04;;;;;;;13.80;11.60;;;;;;;;;;5123206;27;24409;-59
2022/01/25 07:13:29;;;;;;;12.27;10.60;;;;;;;;;;5123717;27;24539;-59
2022/01/25 07:15:54;;;;;;;15.23;12.48;;;;;;;;;;5123147;27;24421;-60
2022/01/25 07:18:20;;;;;;;14.60;12.20;;;;;;;;;;5118301;27;24417;-58
2022/01/25 07:20:45;;;;;;;13.70;12.00;;;;;;;;;;5121797;27;24520;-59
2022/01/25 07:23:10;;;;;;;13.37;11.53;;;;;;;;;;5122208;27;24881;-59
2022/01/25 07:25:35;;;;;;;14.37;11.50;;;;;;;;;;5125002;27;24421;-59
2022/01/25 07:28:00;;;;;;;13.77;10.90;;;;;;;;;;5124172;27;24938;-59
2022/01/25 07:30:25;;;;;;;12.80;11.10;;;;;;;;;;5125253;27;24440;-59
2022/01/25 07:32:51;;;;;;;14.43;12.50;;;;;;;;;;5122618;27;24437;-59
2022/01/25 07:35:16;;;;;;;14.07;11.68;;;;;;;;;;5125091;27;24492;-59
2022/01/25 07:37:41;;;;;;;13.23;11.60;;;;;;;;;;5116832;27;25314;-59
2022/01/25 07:40:07;;;;;;;14.20;12.70;;;;;;;;;;5124819;27;24413;-59
2022/01/25 07:42:36;;;;;;;13.23;11.83;;;;;;;;;;5124939;27;24400;-59
2022/01/25 07:45:01;;;;;;;14.20;12.70;;;;;;;;;;5119732;27;24520;-60
2022/01/25 07:47:27;;;;;;;14.17;12.20;;;;;;;;;;5122578;27;24586;-60
2022/01/25 07:49:54;;;;;;;14.20;12.10;;;;;;;;;;5124859;27;24532;-60
2022/01/25 07:52:19;;;;;;;14.40;12.85;;;;;;;;;;5124268;27;24408;-60
2022/01/25 07:54:44;;;;;;;15.40;12.85;;;;;;;;;;5121635;27;24440;-60
2022/01/25 07:57:09;;;;;;;14.73;12.75;;;;;;;;;;5125247;27;24498;-60
2022/01/25 07:59:34;;;;;;;15.80;13.67;;;;;;;;;;5123325;27;24914;-60
2022/01/25 08:01:59;;;;;;;18.33;15.13;;;;;;;;;;5127284;27;24413;-58
2022/01/25 08:04:25;;;;;;;16.83;13.98;;;;;;;;;;5125594;27;24880;-58
2022/01/25 08:06:50;;;;;;;18.10;15.30;;;;;;;;;;5127192;27;24452;-58
2022/01/25 08:09:15;;;;;;;16.98;13.95;;;;;;;;;;5125916;27;24872;-59
2022/01/25 08:11:43;;;;;;;15.60;13.90;;;;;;;;;;5121907;27;24470;-59
2022/01/25 08:14:16;;;;;;;17.80;15.23;;;;;;;;;;5124561;27;24772;-59
2022/01/25 08:16:45;;;;;;;16.50;14.70;;;;;;;;;;5126864;27;24412;-58
2022/01/25 08:19:10;;;;;;;16.90;14.60;;;;;;;;;;5114709;27;25017;-58
2022/01/25 08:21:41;;;;;;;17.20;14.67;;;;;;;;;;5114889;27;24451;-59
2022/01/25 08:24:06;;;;;;;14.30;12.80;;;;;;;;;;5126518;27;24508;-59
2022/01/25 08:26:33;;;;;;;16.90;14.77;;;;;;;;;;5125301;28;24508;-59
2022/01/25 08:28:58;;;;;;;18.23;15.85;;;;;;;;;;5126567;28;24512;-58
2022/01/25 08:31:23;;;;;;;17.60;15.10;;;;;;;;;;5127537;28;24756;-59
2022/01/25 08:33:48;;;;;;;16.73;14.30;;;;;;;;;;5126527;28;24413;-60
2022/01/25 08:36:14;;;;;;;16.27;14.10;;;;;;;;;;5125782;28;24492;-59
2022/01/25 08:38:39;;;;;;;18.30;14.10;;;;;;;;;;5122544;28;25312;-60
2022/01/25 08:41:06;;;;;;;17.77;15.10;;;;;;;;;;5123621;28;24481;-60
2022/01/25 08:43:31;;;;;;;17.63;15.73;;;;;;;;;;5124762;28;24845;-59
2022/01/25 08:45:56;;;;;;;18.03;15.77;;;;;;;;;;5126590;28;25138;-59
2022/01/25 08:48:21;;;;;;;16.10;14.13;;;;;;;;;;5126833;28;24423;-59
2022/01/25 08:50:47;;;;;;;16.75;14.30;;;;;;;;;;5127112;28;24446;-59
2022/01/25 08:53:12;;;;;;;17.50;14.50;;;;;;;;;;5123679;28;24420;-59
2022/01/25 08:55:37;;;;;;;18.42;15.48;;;;;;;;;;5125530;28;24760;-60
2022/01/25 08:58:02;;;;;;;18.97;16.37;;;;;;;;;;5122712;28;24568;-59
2022/01/25 09:00:27;;;;;;;17.70;15.77;;;;;;;;;;5106714;28;24803;-59
2022/01/25 09:02:53;;;;;;;18.60;16.30;;;;;;;;;;5107066;28;24480;-59
2022/01/25 09:05:18;;;;;;;20.80;16.85;;;;;;;;;;5127064;28;24416;-59
2022/01/25 09:07:44;;;;;;;17.87;14.60;;;;;;;;;;5126045;28;24966;-60
2022/01/25 09:10:09;;;;;;;20.10;16.15;;;;;;;;;;5124553;28;24425;-59
2022/01/25 09:12:34;;;;;;;18.27;15.27;;;;;;;;;;5125800;28;24429;-59
2022/01/25 09:14:59;;;;;;;18.97;15.47;;;;;;;;;;5126841;28;24524;-60
2022/01/25 09:17:24;;;;;;;17.40;15.10;;;;;;;;;;5127468;28;24385;-60
2022/01/25 09:19:50;;;;;;;18.80;16.30;;;;;;;;;;5123881;28;24428;-60
2022/01/25 09:22:15;;;;;;;19.23;15.35;;;;;;;;;;5126611;28;24428;-60
2022/01/25 09:24:40;;;;;;;18.27;14.90;;;;;;;;;;5123724;28;24564;-60
2022/01/25 09:27:07;;;;;;;18.30;16.00;;;;;;;;;;5125815;28;24544;-60
2022/01/25 09:29:33;;;;;;;17.92;14.80;;;;;;;;;;5107666;28;24494;-60
2022/01/25 09:31:58;;;;;;;17.27;14.90;;;;;;;;;;5126154;27;24443;-59
2022/01/25 09:34:25;;;;;;;16.95;14.05;;;;;;;;;;5129854;27;25037;-60
2022/01/25 09:36:51;;;;;;;19.77;17.10;;;;;;;;;;5130132;27;24389;-59
2022/01/25 09:39:16;;;;;;;18.85;15.07;;;;;;;;;;5117782;27;24594;-58
2022/01/25 09:41:42;;;;;;;18.33;15.57;;;;;;;;;;5128499;27;24947;-59
2022/01/25 09:44:07;;;;;;;16.23;14.53;;;;;;;;;;5128916;27;25055;-60
2022/01/25 09:46:32;;;;;;;17.33;14.73;;;;;;;;;;5130993;27;24411;-59
2022/01/25 09:48:58;;;;;;;19.37;16.00;;;;;;;;;;5129416;27;25030;-58
2022/01/25 09:51:25;;;;;;;19.10;16.75;;;;;;;;;;5127354;27;24417;-59
2022/01/25 09:53:50;;;;;;;17.02;14.88;;;;;;;;;;5129542;27;24421;-59
2022/01/25 09:56:15;;;;;;;18.23;15.70;;;;;;;;;;5128122;27;25174;-59
2022/01/25 09:58:42;;;;;;;17.87;14.77;;;;;;;;;;5129797;27;24432;-60
2022/01/25 10:01:07;;;;;;;18.95;15.90;;;;;;;;;;5127983;27;24517;-59
2022/01/25 10:03:37;;;;;;;17.48;15.45;;;;;;;;;;5125623;27;24504;-60
2022/01/25 10:06:03;;;;;;;17.05;15.25;;;;;;;;;;5109379;28;24404;-60
2022/01/25 10:08:32;;;;;;;18.50;15.43;;;;;;;;;;5109180;27;24433;-60
2022/01/25 10:10:59;;;;;;;15.65;13.43;;;;;;;;;;5127427;27;24474;-60
2022/01/25 10:13:28;;;;;;;18.45;15.55;;;;;;;;;;5110765;27;24433;-60
2022/01/25 10:15:58;;;;;;;18.20;16.10;;;;;;;;;;5128912;27;24477;-60
2022/01/25 10:18:27;;;;;;;20.10;17.45;;;;;;;;;;5129323;27;24449;-60
2022/01/25 10:20:52;;;;;;;18.40;16.15;;;;;;;;;;5129138;27;24397;-59
2022/01/25 10:23:19;;;;;;;17.70;15.13;;;;;;;;;;5127695;27;24787;-59
2022/01/25 10:25:46;;;;;;;18.08;15.10;;;;;;;;;;5129488;27;24424;-58
2022/01/25 10:28:13;;;;;;;16.37;14.13;;;;;;;;;;5128129;27;24429;-59
2022/01/25 10:30:49;;;;;;;19.80;15.40;;;;;;;;;;5128838;27;24508;-60
2022/01/25 10:33:19;;;;;;;19.70;15.90;;;;;;;;;;5128371;27;24385;-59
2022/01/25 10:35:44;;;;;;;18.30;15.82;;;;;;;;;;5129635;27;24378;-59
2022/01/25 10:38:23;;;;;;;16.73;14.93;;;;;;;;;;5123745;27;24452;-59
2022/01/25 10:40:56;;;;;;;17.23;14.93;;;;;;;;;;5108611;28;24476;-60
2022/01/25 10:43:22;;;;;;;16.73;14.38;;;;;;;;;;5109513;28;24382;-59
2022/01/25 10:46:02;;;;;;;16.20;14.40;;;;;;;;;;5128403;27;24973;-59
2022/01/25 10:48:30;;;;;;;17.33;14.85;;;;;;;;;;5127206;27;24437;-59
2022/01/25 10:51:02;;;;;;;15.27;13.20;;;;;;;;;;5128187;27;24980;-59
2022/01/25 10:53:27;;;;;;;17.13;13.73;;;;;;;;;;5109861;27;25149;-59
2022/01/25 10:55:52;;;;;;;15.85;13.45;;;;;;;;;;5126571;27;24409;-59
2022/01/25 10:58:17;;;;;;;14.10;12.37;;;;;;;;;;5126909;27;24823;-59
2022/01/25 11:00:47;;;;;;;14.03;11.77;;;;;;;;;;5125907;27;24440;-59
2022/01/25 11:03:24;;;;;;;15.88;13.10;;;;;;;;;;5127910;27;24420;-60
2022/01/25 11:05:49;;;;;;;15.38;12.75;;;;;;;;;;5128955;27;24634;-58
2022/01/25 11:08:16;;;;;;;15.63;12.98;;;;;;;;;;5127980;27;24692;-61
2022/01/25 11:10:49;;;;;;;15.00;12.25;;;;;;;;;;5125967;27;24429;-59
2022/01/25 11:15:55;;;;;;;16.08;12.43;;;;;;;;;;5128476;27;24887;-59
2022/01/25 11:18:20;;;;;;;14.50;12.05;;;;;;;;;;5122304;27;24425;-60
2022/01/25 11:20:46;;;;;;;17.43;12.70;;;;;;;;;;5127416;27;24409;-59
2022/01/25 11:23:12;;;;;;;16.30;12.63;;;;;;;;;;5127973;27;24563;-60
2022/01/25 11:25:38;;;;;;;14.60;11.80;;;;;;;;;;5127995;27;24421;-59
2022/01/25 11:28:03;;;;;;;16.10;12.70;;;;;;;;;;5123733;27;24478;-59
2022/01/25 11:30:29;;;;;;;15.70;12.50;;;;;;;;;;5127557;27;24439;-60
2022/01/25 11:32:54;;;;;;;16.23;12.50;;;;;;;;;;5127719;27;24627;-59
2022/01/25 11:35:20;;;;;;;16.80;12.77;;;;;;;;;;5127717;27;25014;-59
2022/01/25 11:37:47;;;;;;;14.20;12.30;;;;;;;;;;5122103;27;24448;-59
2022/01/25 11:40:20;;;;;;;15.60;11.98;;;;;;;;;;5119297;27;25157;-60
2022/01/25 11:42:46;;;;;;;14.82;12.10;;;;;;;;;;5125951;27;24497;-60
2022/01/25 11:45:11;;;;;;;14.88;12.10;;;;;;;;;;5126382;27;24425;-59
2022/01/25 11:47:37;;;;;;;16.87;13.30;;;;;;;;;;5126570;27;24586;-61
2022/01/25 11:50:05;;;;;;;14.03;12.50;;;;;;;;;;5125585;27;24416;-60
2022/01/25 11:52:30;;;;;;;14.20;11.80;;;;;;;;;;5126224;27;24799;-58
2022/01/25 11:55:16;;;;;;;14.32;11.40;;;;;;;;;;5126375;27;24424;-59
2022/01/25 11:57:45;;;;;;;14.07;12.13;;;;;;;;;;5099817;27;24549;-59
2022/01/25 12:00:10;;;;;;;16.23;12.07;;;;;;;;;;5117013;27;24478;-58
2022/01/25 12:02:36;;;;;;;15.37;12.50;;;;;;;;;;5125193;27;24429;-60
2022/01/25 12:05:27;;;;;;;14.70;12.45;;;;;;;;;;5126642;27;24524;-59
2022/01/25 12:08:15;;;;;;;16.60;12.68;;;;;;;;;;5107268;27;25005;-59
2022/01/25 12:10:42;;;;;;;15.85;12.65;;;;;;;;;;5107577;27;24400;-59
2022/01/25 12:13:08;;;;;;;15.80;12.50;;;;;;;;;;5125775;27;24989;-59
2022/01/25 12:15:34;;;;;;;14.38;12.35;;;;;;;;;;5106857;27;25139;-59
2022/01/25 12:17:59;;;;;;;13.83;11.07;;;;;;;;;;5121530;27;24424;-59
2022/01/25 12:20:24;;;;;;;13.07;10.90;;;;;;;;;;5122602;27;24944;-59
2022/01/25 12:23:03;;;;;;;12.80;11.20;;;;;;;;;;5125099;27;24470;-59
2022/01/25 12:25:46;;;;;;;13.52;11.23;;;;;;;;;;5126179;27;24455;-59
2022/01/25 12:28:21;;;;;;;15.77;12.60;;;;;;;;;;5122606;27;24748;-60
2022/01/25 12:30:47;;;;;;;16.10;12.30;;;;;;;;;;5123645;27;24452;-60
2022/01/25 12:33:22;;;;;;;16.20;12.80;;;;;;;;;;5111966;28;24412;-59
2022/01/25 12:35:49;;;;;;;15.48;12.10;;;;;;;;;;5125397;28;24421;-60
2022/01/25 12:38:20;;;;;;;14.77;11.10;;;;;;;;;;5117189;28;24540;-60
2022/01/25 12:40:50;;;;;;;13.85;11.57;;;;;;;;;;5122289;28;24553;-60
2022/01/25 12:43:18;;;;;;;14.13;11.43;;;;;;;;;;5105486;28;24410;-60
2022/01/25 12:45:46;;;;;;;15.40;13.00;;;;;;;;;;5124984;28;25293;-60
2022/01/25 12:48:12;;;;;;;15.07;12.85;;;;;;;;;;5125848;28;24564;-60
2022/01/25 12:50:39;;;;;;;15.48;12.50;;;;;;;;;;5121663;28;24420;-59
2022/01/25 12:53:05;;;;;;;15.85;12.65;;;;;;;;;;5125981;28;24413;-60
2022/01/25 12:55:32;;;;;;;15.90;12.52;;;;;;;;;;5125016;28;24452;-60
2022/01/25 12:57:57;;;;;;;15.13;11.75;;;;;;;;;;5125353;28;24413;-60
2022/01/25 13:00:31;;;;;;;17.00;13.43;;;;;;;;;;5124638;28;24431;-61
2022/01/25 13:03:09;;;;;;;14.45;11.60;;;;;;;;;;5106418;28;24411;-60
2022/01/25 13:05:39;;;;;;;15.63;12.40;;;;;;;;;;5119315;28;24582;-60
2022/01/25 13:08:14;;;;;;;16.35;13.07;;;;;;;;;;5108792;28;24405;-59
2022/01/25 13:10:39;;;;;;;19.08;14.77;;;;;;;;;;5119355;27;24413;-59
2022/01/25 13:13:20;;;;;;;15.97;13.20;;;;;;;;;;5110421;28;24390;-60
2022/01/25 13:18:11;;;;;;;17.63;13.65;;;;;;;;;;5110461;27;24485;-59
2022/01/25 13:20:38;;;;;;;18.10;14.13;;;;;;;;;;5127015;27;24566;-59
2022/01/25 13:23:03;;;;;;;16.80;12.90;;;;;;;;;;5130538;27;24400;-59
2022/01/25 13:25:42;;;;;;;17.35;13.15;;;;;;;;;;5123643;27;24424;-59
2022/01/25 13:28:20;;;;;;;16.98;13.43;;;;;;;;;;5129438;27;24572;-60
2022/01/25 13:30:45;;;;;;;17.63;13.50;;;;;;;;;;5126666;27;24425;-59
2022/01/25 13:33:13;;;;;;;17.67;13.40;;;;;;;;;;5130000;27;24393;-59
2022/01/25 13:35:41;;;;;;;17.67;13.40;;;;;;;;;;5114972;27;24853;-59
2022/01/25 13:38:15;;;;;;;18.48;14.43;;;;;;;;;;5115218;27;25480;-59
2022/01/25 13:46:08;;;;;;;18.35;14.38;;;;;;;;;;5129032;27;24428;-60
2022/01/25 13:48:34;;;;;;;19.30;15.15;;;;;;;;;;5128892;27;24439;-61
2022/01/25 13:51:01;;;;;;;22.48;16.38;;;;;;;;;;5127777;27;24413;-59
2022/01/25 13:53:27;;;;;;;18.83;14.10;;;;;;;;;;5129109;27;24915;-60
2022/01/25 13:55:53;;;;;;;19.80;15.10;;;;;;;;;;5129496;27;24420;-59
2022/01/25 13:58:20;;;;;;;22.30;16.53;;;;;;;;;;5127889;27;24421;-61
2022/01/25 14:00:45;;;;;;;24.05;16.45;;;;;;;;;;5129273;27;24409;-58
2022/01/25 14:03:10;;;;;;;23.97;17.00;;;;;;;;;;5129408;27;24514;-58
2022/01/25 14:05:36;;;;;;;22.30;15.57;;;;;;;;;;5129260;27;24977;-61
2022/01/25 14:08:02;;;;;;;22.95;16.02;;;;;;;;;;5128683;27;24434;-58
2022/01/25 14:10:28;;;;;;;19.67;15.13;;;;;;;;;;5127495;27;24413;-59
2022/01/25 14:23:51;;;;;;;23.33;16.30;;;;;;;;;;5122563;27;24450;-60
2022/01/25 14:26:16;;;;;;;21.90;16.20;;;;;;;;;;5129398;27;24417;-60
2022/01/25 14:28:46;;;;;;;23.23;15.60;;;;;;;;;;5128940;27;25094;-60
2022/01/25 14:31:18;;;;;;;22.75;15.75;;;;;;;;;;5111705;27;24451;-60
2022/01/25 14:33:57;;;;;;;19.00;15.05;;;;;;;;;;5119913;27;24488;-60
2022/01/25 14:36:23;;;;;;;19.67;15.13;;;;;;;;;;5128147;27;24405;-59
2022/01/25 14:38:48;;;;;;;18.98;14.48;;;;;;;;;;5128118;27;25078;-59
2022/01/25 14:41:18;;;;;;;19.40;14.73;;;;;;;;;;5128527;27;24512;-59
2022/01/25 14:43:53;;;;;;;18.50;14.10;;;;;;;;;;5127335;27;24427;-59
2022/01/25 14:46:21;;;;;;;21.33;15.57;;;;;;;;;;5123588;27;24489;-59
2022/01/25 14:48:55;;;;;;;22.13;16.15;;;;;;;;;;5109006;28;24570;-59
2022/01/25 14:51:20;;;;;;;22.75;16.25;;;;;;;;;;5124135;27;24405;-59
2022/01/25 14:53:46;;;;;;;21.33;15.70;;;;;;;;;;5129199;27;24392;-59
2022/01/25 14:56:13;;;;;;;23.83;17.03;;;;;;;;;;5129028;27;24397;-59
2022/01/25 15:01:21;;;;;;;23.85;16.85;;;;;;;;;;5127311;27;24424;-60
2022/01/25 15:03:47;;;;;;;24.77;17.37;;;;;;;;;;5124421;27;24424;-60
2022/01/25 15:06:14;;;;;;;28.90;19.47;;;;;;;;;;5128214;27;24890;-59
2022/01/25 15:08:46;;;;;;;32.13;20.33;;;;;;;;;;5128567;27;24483;-60
2022/01/25 15:11:11;;;;;;;26.92;19.02;;;;;;;;;;5128217;27;24416;-59
2022/01/25 15:13:39;;;;;;;26.58;19.20;;;;;;;;;;5128612;27;24739;-59
2022/01/25 15:16:04;;;;;;;25.10;18.63;;;;;;;;;;5127820;27;24413;-59
2022/01/25 15:18:31;;;;;;;29.10;20.35;;;;;;;;;;5128570;27;24412;-59
2022/01/25 15:20:58;;;;;;;27.05;18.67;;;;;;;;;;5128471;27;24393;-60
2022/01/25 15:23:24;;;;;;;26.13;18.50;;;;;;;;;;5128099;27;24441;-60
2022/01/25 15:25:54;;;;;;;29.40;20.65;;;;;;;;;;5128081;27;24408;-59
2022/01/25 15:28:20;;;;;;;30.35;20.65;;;;;;;;;;5128178;27;24512;-60
2022/01/25 15:30:45;;;;;;;27.10;19.60;;;;;;;;;;5127554;27;24480;-60
2022/01/25 15:33:11;;;;;;;26.70;18.90;;;;;;;;;;5127212;27;24481;-60
2022/01/25 15:35:36;;;;;;;27.77;20.23;;;;;;;;;;5128169;27;24784;-59
2022/01/25 15:38:02;;;;;;;26.63;19.27;;;;;;;;;;5127854;27;24949;-59
2022/01/25 15:40:28;;;;;;;27.93;18.83;;;;;;;;;;5124085;27;24607;-60
2022/01/25 15:42:53;;;;;;;27.42;18.63;;;;;;;;;;5125582;27;24759;-60
2022/01/25 15:45:26;;;;;;;26.00;18.80;;;;;;;;;;5125162;27;24409;-59
2022/01/25 15:47:51;;;;;;;28.20;19.75;;;;;;;;;;5105519;28;24513;-59
2022/01/25 15:50:16;;;;;;;27.23;19.87;;;;;;;;;;5107528;27;24501;-59
2022/01/25 15:52:43;;;;;;;28.60;20.57;;;;;;;;;;5126041;27;24403;-60
2022/01/25 15:55:08;;;;;;;25.23;18.60;;;;;;;;;;5127721;27;24771;-59
2022/01/25 15:57:34;;;;;;;25.65;17.98;;;;;;;;;;5125188;27;24417;-59
2022/01/25 15:59:59;;;;;;;30.45;21.10;;;;;;;;;;5127555;27;24480;-60
2022/01/25 16:02:25;;;;;;;29.05;20.45;;;;;;;;;;5126781;27;24409;-59
2022/01/25 16:04:50;;;;;;;25.80;17.58;;;;;;;;;;5127111;27;24407;-59
2022/01/25 16:07:15;;;;;;;26.23;19.13;;;;;;;;;;5127525;27;24417;-60
2022/01/25 16:09:42;;;;;;;29.83;20.43;;;;;;;;;;5127397;27;24444;-59
2022/01/25 16:12:08;;;;;;;30.08;19.23;;;;;;;;;;5126984;27;24389;-60